Terminal Aerodrome Forecast
Issued by NWS Huntsville, AL

Home | Current Version | Previous Version | Text Only | Print | Product List | Glossary On
Versions: 1 2 3 4 5 6 7 8 9 10 11 12
000
FTUS44 KHUN 210535
TAFMSL
TAF
KMSL 210535Z 2106/2206 VRB02KT P6SM SCT250
     FM211500 16005KT P6SM SCT035 SCT250
     FM220000 VRB03KT P6SM SCT250=

USA.gov is the U.S. government's official web portal to all federal, state and local government web resources and services.